sensor_id;sensor_type;location;lat;lon;timestamp;P1;durP1;ratioP1;P2;durP2;ratioP2
49900;SDS011;35789;48.414;12.768;2023-09-12T00:00:00;16.2;;;12.7;;
49900;SDS011;35789;48.414;12.768;2023-09-12T00:05:00;16.2;;;12.7;;
49900;SDS011;35789;48.414;12.768;2023-09-12T00:10:00;16.2;;;12.7;;
49900;SDS011;35789;48.414;12.768;2023-09-12T00:15:00;16.2;;;12.7;;
49900;SDS011;35789;48.414;12.768;2023-09-12T00:20:00;16.2;;;12.7;;
49900;SDS011;35789;48.414;12.768;2023-09-12T00:25:00;17.2;;;12.9;;
49900;SDS011;35789;48.414;12.768;2023-09-12T00:30:00;17.2;;;12.9;;
49900;SDS011;35789;48.414;12.768;2023-09-12T00:35:00;17.2;;;12.9;;
49900;SDS011;35789;48.414;12.768;2023-09-12T00:40:00;17.2;;;12.9;;
49900;SDS011;35789;48.414;12.768;2023-09-12T00:45:00;17.2;;;12.9;;
49900;SDS011;35789;48.414;12.768;2023-09-12T00:50:00;17.2;;;12.9;;
49900;SDS011;35789;48.414;12.768;2023-09-12T00:55:00;18.0;;;13.1;;
49900;SDS011;35789;48.414;12.768;2023-09-12T01:00:02;18.0;;;13.1;;
49900;SDS011;35789;48.414;12.768;2023-09-12T01:05:00;18.0;;;13.1;;
49900;SDS011;35789;48.414;12.768;2023-09-12T01:10:00;18.0;;;13.1;;
49900;SDS011;35789;48.414;12.768;2023-09-12T01:15:00;18.0;;;13.1;;
49900;SDS011;35789;48.414;12.768;2023-09-12T01:20:03;18.0;;;13.1;;
49900;SDS011;35789;48.414;12.768;2023-09-12T01:25:08;17.3;;;13.0;;
49900;SDS011;35789;48.414;12.768;2023-09-12T01:30:02;17.3;;;13.0;;
49900;SDS011;35789;48.414;12.768;2023-09-12T01:35:00;17.3;;;13.0;;
49900;SDS011;35789;48.414;12.768;2023-09-12T01:40:01;17.3;;;13.0;;
49900;SDS011;35789;48.414;12.768;2023-09-12T01:45:01;17.3;;;13.0;;
49900;SDS011;35789;48.414;12.768;2023-09-12T01:50:00;17.3;;;13.0;;
49900;SDS011;35789;48.414;12.768;2023-09-12T01:55:02;17.5;;;13.0;;
49900;SDS011;35789;48.414;12.768;2023-09-12T02:00:01;17.5;;;13.0;;
49900;SDS011;35789;48.414;12.768;2023-09-12T02:05:06;17.5;;;13.0;;
49900;SDS011;35789;48.414;12.768;2023-09-12T02:10:00;17.5;;;13.0;;
49900;SDS011;35789;48.414;12.768;2023-09-12T02:15:00;17.5;;;13.0;;
49900;SDS011;35789;48.414;12.768;2023-09-12T02:20:00;17.5;;;13.0;;
49900;SDS011;35789;48.414;12.768;2023-09-12T02:25:00;20.6;;;13.1;;
49900;SDS011;35789;48.414;12.768;2023-09-12T02:30:00;20.6;;;13.1;;
49900;SDS011;35789;48.414;12.768;2023-09-12T02:35:00;20.6;;;13.1;;
49900;SDS011;35789;48.414;12.768;2023-09-12T02:40:00;20.6;;;13.1;;
49900;SDS011;35789;48.414;12.768;2023-09-12T02:45:00;20.6;;;13.1;;
49900;SDS011;35789;48.414;12.768;2023-09-12T02:50:00;20.6;;;13.1;;
49900;SDS011;35789;48.414;12.768;2023-09-12T02:55:00;18.0;;;12.1;;
49900;SDS011;35789;48.414;12.768;2023-09-12T03:00:00;18.0;;;12.1;;
49900;SDS011;35789;48.414;12.768;2023-09-12T03:05:00;18.0;;;12.1;;
49900;SDS011;35789;48.414;12.768;2023-09-12T03:10:00;18.0;;;12.1;;
49900;SDS011;35789;48.414;12.768;2023-09-12T03:15:00;18.0;;;12.1;;
49900;SDS011;35789;48.414;12.768;2023-09-12T03:20:00;18.0;;;12.1;;
49900;SDS011;35789;48.414;12.768;2023-09-12T03:25:01;16.3;;;12.1;;
49900;SDS011;35789;48.414;12.768;2023-09-12T03:30:00;16.3;;;12.1;;
49900;SDS011;35789;48.414;12.768;2023-09-12T03:35:00;16.3;;;12.1;;
49900;SDS011;35789;48.414;12.768;2023-09-12T03:40:00;16.3;;;12.1;;
49900;SDS011;35789;48.414;12.768;2023-09-12T03:45:00;16.3;;;12.1;;
49900;SDS011;35789;48.414;12.768;2023-09-12T03:50:00;16.3;;;12.1;;
49900;SDS011;35789;48.414;12.768;2023-09-12T03:55:00;18.7;;;13.1;;
49900;SDS011;35789;48.414;12.768;2023-09-12T04:00:00;18.7;;;13.1;;
49900;SDS011;35789;48.414;12.768;2023-09-12T04:05:00;18.7;;;13.1;;
49900;SDS011;35789;48.414;12.768;2023-09-12T04:10:00;18.7;;;13.1;;
49900;SDS011;35789;48.414;12.768;2023-09-12T04:15:00;18.7;;;13.1;;
49900;SDS011;35789;48.414;12.768;2023-09-12T04:20:00;18.7;;;13.1;;
49900;SDS011;35789;48.414;12.768;2023-09-12T04:25:00;21.1;;;13.6;;
49900;SDS011;35789;48.414;12.768;2023-09-12T04:30:01;21.1;;;13.6;;
49900;SDS011;35789;48.414;12.768;2023-09-12T04:35:00;21.1;;;13.6;;
49900;SDS011;35789;48.414;12.768;2023-09-12T04:40:00;21.1;;;13.6;;
49900;SDS011;35789;48.414;12.768;2023-09-12T04:45:01;21.1;;;13.6;;
49900;SDS011;35789;48.414;12.768;2023-09-12T04:50:00;21.1;;;13.6;;
49900;SDS011;35789;48.414;12.768;2023-09-12T04:55:00;17.8;;;14.0;;
49900;SDS011;35789;48.414;12.768;2023-09-12T05:00:00;17.8;;;14.0;;
49900;SDS011;35789;48.414;12.768;2023-09-12T05:05:00;17.8;;;14.0;;
49900;SDS011;35789;48.414;12.768;2023-09-12T05:10:00;17.8;;;14.0;;
49900;SDS011;35789;48.414;12.768;2023-09-12T05:15:00;17.8;;;14.0;;
49900;SDS011;35789;48.414;12.768;2023-09-12T05:20:01;17.8;;;14.0;;
49900;SDS011;35789;48.414;12.768;2023-09-12T05:25:00;19.7;;;14.7;;
49900;SDS011;35789;48.414;12.768;2023-09-12T05:30:00;19.7;;;14.7;;
49900;SDS011;35789;48.414;12.768;2023-09-12T05:35:00;19.7;;;14.7;;
49900;SDS011;35789;48.414;12.768;2023-09-12T05:40:00;19.7;;;14.7;;
49900;SDS011;35789;48.414;12.768;2023-09-12T05:45:00;19.7;;;14.7;;
49900;SDS011;35789;48.414;12.768;2023-09-12T05:50:00;19.7;;;14.7;;
49900;SDS011;35789;48.414;12.768;2023-09-12T05:55:00;19.6;;;14.5;;
49900;SDS011;35789;48.414;12.768;2023-09-12T06:00:00;19.6;;;14.5;;
49900;SDS011;35789;48.414;12.768;2023-09-12T06:05:00;19.6;;;14.5;;
49900;SDS011;35789;48.414;12.768;2023-09-12T06:10:00;19.6;;;14.5;;
49900;SDS011;35789;48.414;12.768;2023-09-12T06:15:00;19.6;;;14.5;;
49900;SDS011;35789;48.414;12.768;2023-09-12T06:20:00;19.6;;;14.5;;
49900;SDS011;35789;48.414;12.768;2023-09-12T06:25:00;23.4;;;19.1;;
49900;SDS011;35789;48.414;12.768;2023-09-12T06:30:00;23.4;;;19.1;;
49900;SDS011;35789;48.414;12.768;2023-09-12T06:35:00;23.4;;;19.1;;
49900;SDS011;35789;48.414;12.768;2023-09-12T06:40:00;23.4;;;19.1;;
49900;SDS011;35789;48.414;12.768;2023-09-12T06:45:00;23.4;;;19.1;;
49900;SDS011;35789;48.414;12.768;2023-09-12T06:50:02;25.9;;;22.6;;
49900;SDS011;35789;48.414;12.768;2023-09-12T06:55:00;25.9;;;22.6;;
49900;SDS011;35789;48.414;12.768;2023-09-12T07:00:00;25.9;;;22.6;;
49900;SDS011;35789;48.414;12.768;2023-09-12T07:05:00;25.9;;;22.6;;
49900;SDS011;35789;48.414;12.768;2023-09-12T07:10:00;25.9;;;22.6;;
49900;SDS011;35789;48.414;12.768;2023-09-12T07:15:01;25.9;;;22.6;;
49900;SDS011;35789;48.414;12.768;2023-09-12T07:20:00;30.6;;;26.4;;
49900;SDS011;35789;48.414;12.768;2023-09-12T07:25:00;30.6;;;26.4;;
49900;SDS011;35789;48.414;12.768;2023-09-12T07:30:00;30.6;;;26.4;;
49900;SDS011;35789;48.414;12.768;2023-09-12T07:35:00;30.6;;;26.4;;
49900;SDS011;35789;48.414;12.768;2023-09-12T07:40:00;30.6;;;26.4;;
49900;SDS011;35789;48.414;12.768;2023-09-12T07:45:01;30.6;;;26.4;;
49900;SDS011;35789;48.414;12.768;2023-09-12T07:50:01;23.6;;;19.3;;
49900;SDS011;35789;48.414;12.768;2023-09-12T07:55:01;23.6;;;19.3;;
49900;SDS011;35789;48.414;12.768;2023-09-12T08:00:00;23.6;;;19.3;;
49900;SDS011;35789;48.414;12.768;2023-09-12T08:05:00;23.6;;;19.3;;
49900;SDS011;35789;48.414;12.768;2023-09-12T08:10:00;23.6;;;19.3;;
49900;SDS011;35789;48.414;12.768;2023-09-12T08:15:00;23.6;;;19.3;;
49900;SDS011;35789;48.414;12.768;2023-09-12T08:20:00;19.7;;;15.6;;
49900;SDS011;35789;48.414;12.768;2023-09-12T08:25:00;19.7;;;15.6;;
49900;SDS011;35789;48.414;12.768;2023-09-12T08:30:00;19.7;;;15.6;;
49900;SDS011;35789;48.414;12.768;2023-09-12T08:35:00;19.7;;;15.6;;
49900;SDS011;35789;48.414;12.768;2023-09-12T08:40:00;19.7;;;15.6;;
49900;SDS011;35789;48.414;12.768;2023-09-12T08:45:01;19.7;;;15.6;;
49900;SDS011;35789;48.414;12.768;2023-09-12T08:50:01;17.0;;;15.2;;
49900;SDS011;35789;48.414;12.768;2023-09-12T08:55:00;17.0;;;15.2;;
49900;SDS011;35789;48.414;12.768;2023-09-12T09:00:01;17.0;;;15.2;;
49900;SDS011;35789;48.414;12.768;2023-09-12T09:05:02;17.0;;;15.2;;
49900;SDS011;35789;48.414;12.768;2023-09-12T09:10:02;17.0;;;15.2;;
49900;SDS011;35789;48.414;12.768;2023-09-12T09:20:00;19.2;;;15.6;;
49900;SDS011;35789;48.414;12.768;2023-09-12T09:25:10;19.2;;;15.6;;
49900;SDS011;35789;48.414;12.768;2023-09-12T09:30:00;19.2;;;15.6;;
49900;SDS011;35789;48.414;12.768;2023-09-12T09:35:00;19.2;;;15.6;;
49900;SDS011;35789;48.414;12.768;2023-09-12T09:40:00;19.2;;;15.6;;
49900;SDS011;35789;48.414;12.768;2023-09-12T09:45:00;19.2;;;15.6;;
49900;SDS011;35789;48.414;12.768;2023-09-12T09:50:00;17.5;;;15.6;;
49900;SDS011;35789;48.414;12.768;2023-09-12T09:55:00;17.5;;;15.6;;
49900;SDS011;35789;48.414;12.768;2023-09-12T10:00:00;17.5;;;15.6;;
49900;SDS011;35789;48.414;12.768;2023-09-12T10:05:04;17.5;;;15.6;;
49900;SDS011;35789;48.414;12.768;2023-09-12T10:10:02;17.5;;;15.6;;
49900;SDS011;35789;48.414;12.768;2023-09-12T10:15:01;17.5;;;15.6;;
49900;SDS011;35789;48.414;12.768;2023-09-12T10:20:02;15.7;;;13.1;;
49900;SDS011;35789;48.414;12.768;2023-09-12T10:25:01;15.7;;;13.1;;
49900;SDS011;35789;48.414;12.768;2023-09-12T10:30:02;15.7;;;13.1;;
49900;SDS011;35789;48.414;12.768;2023-09-12T10:35:02;15.7;;;13.1;;
49900;SDS011;35789;48.414;12.768;2023-09-12T10:40:01;15.7;;;13.1;;
49900;SDS011;35789;48.414;12.768;2023-09-12T10:45:01;15.7;;;13.1;;
49900;SDS011;35789;48.414;12.768;2023-09-12T10:50:01;11.1;;;9.0;;
49900;SDS011;35789;48.414;12.768;2023-09-12T10:55:04;11.1;;;9.0;;
49900;SDS011;35789;48.414;12.768;2023-09-12T11:00:15;11.1;;;9.0;;
49900;SDS011;35789;48.414;12.768;2023-09-12T11:05:02;11.1;;;9.0;;
49900;SDS011;35789;48.414;12.768;2023-09-12T11:10:19;11.1;;;9.0;;
49900;SDS011;35789;48.414;12.768;2023-09-12T11:15:04;11.1;;;9.0;;
49900;SDS011;35789;48.414;12.768;2023-09-12T11:20:02;12.8;;;10.2;;
49900;SDS011;35789;48.414;12.768;2023-09-12T11:25:02;12.8;;;10.2;;
49900;SDS011;35789;48.414;12.768;2023-09-12T11:30:05;12.8;;;10.2;;
49900;SDS011;35789;48.414;12.768;2023-09-12T11:35:05;12.8;;;10.2;;
49900;SDS011;35789;48.414;12.768;2023-09-12T11:40:00;12.8;;;10.2;;
49900;SDS011;35789;48.414;12.768;2023-09-12T11:45:00;12.8;;;10.2;;
49900;SDS011;35789;48.414;12.768;2023-09-12T11:50:01;11.2;;;9.3;;
49900;SDS011;35789;48.414;12.768;2023-09-12T11:55:00;11.2;;;9.3;;
49900;SDS011;35789;48.414;12.768;2023-09-12T12:00:03;11.2;;;9.3;;
49900;SDS011;35789;48.414;12.768;2023-09-12T12:05:01;11.2;;;9.3;;
49900;SDS011;35789;48.414;12.768;2023-09-12T12:10:00;11.2;;;9.3;;
49900;SDS011;35789;48.414;12.768;2023-09-12T12:15:00;11.2;;;9.3;;
49900;SDS011;35789;48.414;12.768;2023-09-12T12:20:00;11.1;;;8.4;;
49900;SDS011;35789;48.414;12.768;2023-09-12T12:25:06;11.1;;;8.4;;
49900;SDS011;35789;48.414;12.768;2023-09-12T12:30:00;11.1;;;8.4;;
49900;SDS011;35789;48.414;12.768;2023-09-12T12:35:00;11.1;;;8.4;;
49900;SDS011;35789;48.414;12.768;2023-09-12T12:40:00;11.1;;;8.4;;
49900;SDS011;35789;48.414;12.768;2023-09-12T12:45:00;11.1;;;8.4;;
49900;SDS011;35789;48.414;12.768;2023-09-12T12:50:00;10.7;;;7.9;;
49900;SDS011;35789;48.414;12.768;2023-09-12T12:55:03;10.7;;;7.9;;
49900;SDS011;35789;48.414;12.768;2023-09-12T13:00:01;10.7;;;7.9;;
49900;SDS011;35789;48.414;12.768;2023-09-12T13:05:00;10.7;;;7.9;;
49900;SDS011;35789;48.414;12.768;2023-09-12T13:10:00;10.7;;;7.9;;
49900;SDS011;35789;48.414;12.768;2023-09-12T13:15:01;10.7;;;7.9;;
49900;SDS011;35789;48.414;12.768;2023-09-12T13:20:00;10.2;;;8.0;;
49900;SDS011;35789;48.414;12.768;2023-09-12T13:25:00;10.2;;;8.0;;
49900;SDS011;35789;48.414;12.768;2023-09-12T13:30:01;10.2;;;8.0;;
49900;SDS011;35789;48.414;12.768;2023-09-12T13:35:00;10.2;;;8.0;;
49900;SDS011;35789;48.414;12.768;2023-09-12T13:40:00;10.2;;;8.0;;
49900;SDS011;35789;48.414;12.768;2023-09-12T13:45:00;10.2;;;8.0;;
49900;SDS011;35789;48.414;12.768;2023-09-12T13:50:00;10.4;;;8.0;;
49900;SDS011;35789;48.414;12.768;2023-09-12T13:55:01;10.4;;;8.0;;
49900;SDS011;35789;48.414;12.768;2023-09-12T14:00:00;10.4;;;8.0;;
49900;SDS011;35789;48.414;12.768;2023-09-12T14:05:01;10.4;;;8.0;;
49900;SDS011;35789;48.414;12.768;2023-09-12T14:10:00;10.4;;;8.0;;
49900;SDS011;35789;48.414;12.768;2023-09-12T14:15:00;10.4;;;8.0;;
49900;SDS011;35789;48.414;12.768;2023-09-12T14:20:00;10.4;;;7.2;;
49900;SDS011;35789;48.414;12.768;2023-09-12T14:25:00;10.4;;;7.2;;
49900;SDS011;35789;48.414;12.768;2023-09-12T14:30:00;10.4;;;7.2;;
49900;SDS011;35789;48.414;12.768;2023-09-12T14:35:00;10.4;;;7.2;;
49900;SDS011;35789;48.414;12.768;2023-09-12T14:40:05;10.4;;;7.2;;
49900;SDS011;35789;48.414;12.768;2023-09-12T14:45:00;10.4;;;7.2;;
49900;SDS011;35789;48.414;12.768;2023-09-12T14:50:00;10.6;;;7.5;;
49900;SDS011;35789;48.414;12.768;2023-09-12T14:55:00;10.6;;;7.5;;
49900;SDS011;35789;48.414;12.768;2023-09-12T15:00:00;10.6;;;7.5;;
49900;SDS011;35789;48.414;12.768;2023-09-12T15:05:01;10.6;;;7.5;;
49900;SDS011;35789;48.414;12.768;2023-09-12T15:10:00;10.6;;;7.5;;
49900;SDS011;35789;48.414;12.768;2023-09-12T15:15:03;10.6;;;7.5;;
49900;SDS011;35789;48.414;12.768;2023-09-12T15:20:00;10.3;;;8.2;;
49900;SDS011;35789;48.414;12.768;2023-09-12T15:25:02;10.3;;;8.2;;
49900;SDS011;35789;48.414;12.768;2023-09-12T15:30:00;10.3;;;8.2;;
49900;SDS011;35789;48.414;12.768;2023-09-12T15:35:00;10.3;;;8.2;;
49900;SDS011;35789;48.414;12.768;2023-09-12T15:40:00;10.3;;;8.2;;
49900;SDS011;35789;48.414;12.768;2023-09-12T15:45:00;10.3;;;8.2;;
49900;SDS011;35789;48.414;12.768;2023-09-12T15:50:00;10.6;;;8.1;;
49900;SDS011;35789;48.414;12.768;2023-09-12T15:55:00;10.6;;;8.1;;
49900;SDS011;35789;48.414;12.768;2023-09-12T16:00:00;10.6;;;8.1;;
49900;SDS011;35789;48.414;12.768;2023-09-12T16:05:00;10.6;;;8.1;;
49900;SDS011;35789;48.414;12.768;2023-09-12T16:10:00;10.6;;;8.1;;
49900;SDS011;35789;48.414;12.768;2023-09-12T16:15:00;10.6;;;8.1;;
49900;SDS011;35789;48.414;12.768;2023-09-12T16:20:00;11.9;;;8.2;;
49900;SDS011;35789;48.414;12.768;2023-09-12T16:25:00;11.9;;;8.2;;
49900;SDS011;35789;48.414;12.768;2023-09-12T16:30:00;11.9;;;8.2;;
49900;SDS011;35789;48.414;12.768;2023-09-12T16:35:00;11.9;;;8.2;;
49900;SDS011;35789;48.414;12.768;2023-09-12T16:40:01;11.9;;;8.2;;
49900;SDS011;35789;48.414;12.768;2023-09-12T16:45:01;11.9;;;8.2;;
49900;SDS011;35789;48.414;12.768;2023-09-12T16:50:00;11.6;;;9.1;;
49900;SDS011;35789;48.414;12.768;2023-09-12T16:55:00;11.6;;;9.1;;
49900;SDS011;35789;48.414;12.768;2023-09-12T17:00:00;11.6;;;9.1;;
49900;SDS011;35789;48.414;12.768;2023-09-12T17:05:00;11.6;;;9.1;;
49900;SDS011;35789;48.414;12.768;2023-09-12T17:10:00;11.6;;;9.1;;
49900;SDS011;35789;48.414;12.768;2023-09-12T17:15:00;11.6;;;9.1;;
49900;SDS011;35789;48.414;12.768;2023-09-12T17:20:00;14.0;;;10.1;;
49900;SDS011;35789;48.414;12.768;2023-09-12T17:25:00;14.0;;;10.1;;
49900;SDS011;35789;48.414;12.768;2023-09-12T17:30:02;14.0;;;10.1;;
49900;SDS011;35789;48.414;12.768;2023-09-12T17:35:00;14.0;;;10.1;;
49900;SDS011;35789;48.414;12.768;2023-09-12T17:40:00;14.0;;;10.1;;
49900;SDS011;35789;48.414;12.768;2023-09-12T17:45:02;14.0;;;10.1;;
49900;SDS011;35789;48.414;12.768;2023-09-12T17:50:00;15.5;;;10.2;;
49900;SDS011;35789;48.414;12.768;2023-09-12T17:55:00;15.5;;;10.2;;
49900;SDS011;35789;48.414;12.768;2023-09-12T18:00:00;15.5;;;10.2;;
49900;SDS011;35789;48.414;12.768;2023-09-12T18:05:00;15.5;;;10.2;;
49900;SDS011;35789;48.414;12.768;2023-09-12T18:10:00;12.7;;;10.2;;
49900;SDS011;35789;48.414;12.768;2023-09-12T18:15:00;12.7;;;10.2;;
49900;SDS011;35789;48.414;12.768;2023-09-12T18:20:00;12.7;;;10.2;;
49900;SDS011;35789;48.414;12.768;2023-09-12T18:25:00;12.7;;;10.2;;
49900;SDS011;35789;48.414;12.768;2023-09-12T18:30:00;12.7;;;10.2;;
49900;SDS011;35789;48.414;12.768;2023-09-12T18:35:00;12.7;;;10.2;;
49900;SDS011;35789;48.414;12.768;2023-09-12T18:40:00;12.5;;;8.3;;
49900;SDS011;35789;48.414;12.768;2023-09-12T18:45:00;12.5;;;8.3;;
49900;SDS011;35789;48.414;12.768;2023-09-12T18:50:01;12.5;;;8.3;;
49900;SDS011;35789;48.414;12.768;2023-09-12T18:55:00;12.5;;;8.3;;
49900;SDS011;35789;48.414;12.768;2023-09-12T19:00:00;12.5;;;8.3;;
49900;SDS011;35789;48.414;12.768;2023-09-12T19:05:00;12.5;;;8.3;;
49900;SDS011;35789;48.414;12.768;2023-09-12T19:10:01;12.3;;;8.2;;
49900;SDS011;35789;48.414;12.768;2023-09-12T19:15:00;12.3;;;8.2;;
49900;SDS011;35789;48.414;12.768;2023-09-12T19:20:00;12.3;;;8.2;;
49900;SDS011;35789;48.414;12.768;2023-09-12T19:25:00;12.3;;;8.2;;
49900;SDS011;35789;48.414;12.768;2023-09-12T19:30:01;12.3;;;8.2;;
49900;SDS011;35789;48.414;12.768;2023-09-12T19:35:00;12.3;;;8.2;;
49900;SDS011;35789;48.414;12.768;2023-09-12T19:40:00;10.5;;;8.2;;
49900;SDS011;35789;48.414;12.768;2023-09-12T19:45:00;10.5;;;8.2;;
49900;SDS011;35789;48.414;12.768;2023-09-12T19:50:00;10.5;;;8.2;;
49900;SDS011;35789;48.414;12.768;2023-09-12T19:55:00;10.5;;;8.2;;
49900;SDS011;35789;48.414;12.768;2023-09-12T20:00:00;10.5;;;8.2;;
49900;SDS011;35789;48.414;12.768;2023-09-12T20:05:00;10.5;;;8.2;;
49900;SDS011;35789;48.414;12.768;2023-09-12T20:10:00;10.9;;;7.9;;
49900;SDS011;35789;48.414;12.768;2023-09-12T20:15:00;10.9;;;7.9;;
49900;SDS011;35789;48.414;12.768;2023-09-12T20:20:00;10.9;;;7.9;;
49900;SDS011;35789;48.414;12.768;2023-09-12T20:25:00;10.9;;;7.9;;
49900;SDS011;35789;48.414;12.768;2023-09-12T20:30:00;10.9;;;7.9;;
49900;SDS011;35789;48.414;12.768;2023-09-12T20:35:00;10.9;;;7.9;;
49900;SDS011;35789;48.414;12.768;2023-09-12T20:40:00;10.1;;;8.1;;
49900;SDS011;35789;48.414;12.768;2023-09-12T20:45:00;10.1;;;8.1;;
49900;SDS011;35789;48.414;12.768;2023-09-12T20:50:00;10.1;;;8.1;;
49900;SDS011;35789;48.414;12.768;2023-09-12T20:55:00;10.1;;;8.1;;
49900;SDS011;35789;48.414;12.768;2023-09-12T21:00:00;10.1;;;8.1;;
49900;SDS011;35789;48.414;12.768;2023-09-12T21:05:00;10.1;;;8.1;;
49900;SDS011;35789;48.414;12.768;2023-09-12T21:10:00;9.9;;;8.1;;
49900;SDS011;35789;48.414;12.768;2023-09-12T21:15:01;9.9;;;8.1;;
49900;SDS011;35789;48.414;12.768;2023-09-12T21:20:00;9.9;;;8.1;;
49900;SDS011;35789;48.414;12.768;2023-09-12T21:25:01;9.9;;;8.1;;
49900;SDS011;35789;48.414;12.768;2023-09-12T21:30:01;9.9;;;8.1;;
49900;SDS011;35789;48.414;12.768;2023-09-12T21:35:09;9.9;;;8.1;;
49900;SDS011;35789;48.414;12.768;2023-09-12T21:40:00;9.7;;;7.9;;
49900;SDS011;35789;48.414;12.768;2023-09-12T21:45:00;9.7;;;7.9;;
49900;SDS011;35789;48.414;12.768;2023-09-12T21:50:00;9.7;;;7.9;;
49900;SDS011;35789;48.414;12.768;2023-09-12T21:55:01;9.7;;;7.9;;
49900;SDS011;35789;48.414;12.768;2023-09-12T22:00:00;9.7;;;7.9;;
49900;SDS011;35789;48.414;12.768;2023-09-12T22:05:00;9.7;;;7.9;;
49900;SDS011;35789;48.414;12.768;2023-09-12T22:10:00;9.2;;;8.2;;
49900;SDS011;35789;48.414;12.768;2023-09-12T22:15:00;9.2;;;8.2;;
49900;SDS011;35789;48.414;12.768;2023-09-12T22:20:00;9.2;;;8.2;;
49900;SDS011;35789;48.414;12.768;2023-09-12T22:25:00;9.2;;;8.2;;
49900;SDS011;35789;48.414;12.768;2023-09-12T22:30:00;9.2;;;8.2;;
49900;SDS011;35789;48.414;12.768;2023-09-12T22:35:00;9.2;;;8.2;;
49900;SDS011;35789;48.414;12.768;2023-09-12T22:40:00;10.0;;;8.2;;
49900;SDS011;35789;48.414;12.768;2023-09-12T22:45:00;10.0;;;8.2;;
49900;SDS011;35789;48.414;12.768;2023-09-12T22:50:03;10.0;;;8.2;;
49900;SDS011;35789;48.414;12.768;2023-09-12T22:55:00;10.0;;;8.2;;
49900;SDS011;35789;48.414;12.768;2023-09-12T23:00:00;10.0;;;8.2;;
49900;SDS011;35789;48.414;12.768;2023-09-12T23:05:00;10.0;;;8.2;;
49900;SDS011;35789;48.414;12.768;2023-09-12T23:10:00;9.9;;;8.6;;
49900;SDS011;35789;48.414;12.768;2023-09-12T23:15:00;9.9;;;8.6;;
49900;SDS011;35789;48.414;12.768;2023-09-12T23:20:00;9.9;;;8.6;;
49900;SDS011;35789;48.414;12.768;2023-09-12T23:25:00;9.9;;;8.6;;
49900;SDS011;35789;48.414;12.768;2023-09-12T23:30:00;9.9;;;8.6;;
49900;SDS011;35789;48.414;12.768;2023-09-12T23:35:00;9.9;;;8.6;;
49900;SDS011;35789;48.414;12.768;2023-09-12T23:40:00;12.4;;;8.9;;
49900;SDS011;35789;48.414;12.768;2023-09-12T23:45:02;12.4;;;8.9;;
49900;SDS011;35789;48.414;12.768;2023-09-12T23:50:00;12.4;;;8.9;;
49900;SDS011;35789;48.414;12.768;2023-09-12T23:55:00;12.4;;;8.9;;
